| time (UTC) | temp F | wind direction | speed MPH | gust MPH | rain 1hr in | rain 24hr in | rain mn in | humidity % | barometer mb |
| 20260504024017 | 56 | 0 | 0.0 | 0.0 | 0.00 | 0.00 | 0.00 | 42 | 1003.7 |
| 20260504023519 | 57 | 0 | 0.0 | 1.0 | 0.00 | 0.00 | 0.00 | 41 | 1003.7 |
| 20260504023051 | 57 | 0 | 0.0 | 1.0 | 0.00 | 0.00 | 0.00 | 40 | 1003.7 |
| 20260504022519 | 58 | 0 | 0.0 | 0.0 | 0.00 | 0.00 | 0.00 | 39 | 1003.8 |
| 20260504022017 | 58 | 0 | 0.0 | 0.0 | 0.00 | 0.00 | 0.00 | 39 | 1003.7 |
| 20260504021538 | 59 | 0 | 0.0 | 1.0 | 0.00 | 0.00 | 0.00 | 37 | 1003.7 |
| 20260504021016 | 59 | 0 | 0.0 | 1.0 | 0.00 | 0.00 | 0.00 | 36 | 1003.6 |
| 20260504020518 | 60 | 0 | 0.0 | 1.0 | 0.00 | 0.00 | 0.00 | 36 | 1003.6 |
| 20260504020038 | 60 | 0 | 0.0 | 1.0 | 0.00 | 0.00 | 0.00 | 35 | 1003.7 |
| 20260504015516 | 61 | 0 | 0.0 | 2.0 | 0.00 | 0.00 | 0.00 | 35 | 1003.7 |
| 20260504015021 | 61 | 0 | 0.0 | 3.0 | 0.00 | 0.00 | 0.00 | 34 | 1003.6 |
| 20260504014546 | 62 | 0 | 0.0 | 3.0 | 0.00 | 0.00 | 0.00 | 34 | 1003.7 |
| 20260504014018 | 62 | 0 | 0.0 | 3.0 | 0.00 | 0.00 | 0.00 | 34 | 1003.8 |
| 20260504013518 | 63 | 0 | 0.0 | 3.0 | 0.00 | 0.00 | 0.00 | 33 | 1003.7 |
| 20260504013044 | 63 | 0 | 0.0 | 3.0 | 0.00 | 0.00 | 0.00 | 33 | 1003.8 |
| 20260504012517 | 64 | 0 | 0.0 | 3.0 | 0.00 | 0.00 | 0.00 | 32 | 1003.9 |
| 20260504012018 | 64 | 0 | 0.0 | 1.0 | 0.00 | 0.00 | 0.00 | 32 | 1003.8 |
| 20260504011538 | 64 | 0 | 0.0 | 1.0 | 0.00 | 0.00 | 0.00 | 31 | 1003.9 |
| 20260504011020 | 65 | 0 | 0.0 | 4.0 | 0.00 | 0.00 | 0.00 | 30 | 1003.9 |
| 20260504010518 | 65 | 250 | 0.0 | 4.0 | 0.00 | 0.00 | 0.00 | 30 | 1003.9 |
| 20260504010047 | 65 | 0 | 0.0 | 9.0 | 0.00 | 0.00 | 0.00 | 30 | 1003.9 |
| 20260504005520 | 65 | 0 | 1.0 | 9.0 | 0.00 | 0.00 | 0.00 | 29 | 1003.9 |
| 20260504005019 | 65 | 290 | 2.0 | 7.0 | 0.00 | 0.00 | 0.00 | 29 | 1004.0 |
| 20260504004546 | 66 | 281 | 3.0 | 6.0 | 0.00 | 0.00 | 0.00 | 29 | 1003.9 |
| 20260504004016 | 66 | 281 | 2.0 | 7.0 | 0.00 | 0.00 | 0.00 | 29 | 1003.8 |
| 20260504003518 | 66 | 0 | 2.0 | 10.0 | 0.00 | 0.00 | 0.00 | 28 | 1003.9 |
| 20260504003038 | 66 | 272 | 4.0 | 10.0 | 0.00 | 0.00 | 0.00 | 28 | 1003.8 |
| 20260504002518 | 67 | 238 | 2.0 | 8.0 | 0.00 | 0.00 | 0.00 | 28 | 1004.0 |
| 20260504002015 | 67 | 248 | 2.0 | 10.0 | 0.00 | 0.00 | 0.00 | 27 | 1004.0 |
| 20260504001537 | 68 | 200 | 3.0 | 10.0 | 0.00 | 0.00 | 0.00 | 27 | 1004.0 |
| 20260504001016 | 68 | 238 | 2.0 | 9.0 | 0.00 | 0.00 | 0.00 | 27 | 1004.0 |
| 20260504000516 | 69 | 257 | 3.0 | 13.0 | 0.00 | 0.00 | 0.00 | 26 | 1004.0 |
| 20260504000037 | 69 | 281 | 3.0 | 13.0 | 0.00 | 0.00 | 0.00 | 27 | 1004.0 |
| 20260503235516 | 69 | 254 | 5.0 | 13.0 | 0.00 | 0.00 | 0.00 | 25 | 1004.0 |
| 20260503235018 | 69 | 292 | 4.0 | 11.0 | 0.00 | 0.00 | 0.00 | 25 | 1003.9 |
| 20260503234542 | 70 | 242 | 3.0 | 10.0 | 0.00 | 0.00 | 0.00 | 26 | 1003.9 |
| 20260503234019 | 70 | 239 | 1.0 | 9.0 | 0.00 | 0.00 | 0.00 | 26 | 1004.0 |
| 20260503233522 | 70 | 256 | 3.0 | 12.0 | 0.00 | 0.00 | 0.00 | 24 | 1004.0 |
| 20260503233037 | 70 | 236 | 4.0 | 12.0 | 0.00 | 0.00 | 0.00 | 25 | 1004.0 |
| 20260503232516 | 70 | 260 | 4.0 | 11.0 | 0.00 | 0.00 | 0.00 | 25 | 1004.1 |
| 20260503232019 | 70 | 265 | 4.0 | 14.0 | 0.00 | 0.00 | 0.00 | 25 | 1004.2 |
| 20260503231538 | 70 | 0 | 4.0 | 14.0 | 0.00 | 0.00 | 0.00 | 26 | 1004.2 |
| 20260503231019 | 71 | 310 | 4.0 | 11.0 | 0.00 | 0.00 | 0.00 | 25 | 1004.2 |
| 20260503230517 | 71 | 210 | 5.0 | 13.0 | 0.00 | 0.00 | 0.00 | 25 | 1004.2 |
| 20260503230040 | 71 | 294 | 5.0 | 15.0 | 0.00 | 0.00 | 0.00 | 25 | 1004.2 |
| 20260503225516 | 71 | 273 | 4.0 | 15.0 | 0.00 | 0.00 | 0.00 | 26 | 1004.3 |
| 20260503225019 | 71 | 299 | 3.0 | 9.0 | 0.00 | 0.00 | 0.00 | 28 | 1004.2 |
| 20260503224537 | 72 | 307 | 4.0 | 9.0 | 0.00 | 0.00 | 0.00 | 26 | 1004.2 |
| 20260503224016 | 71 | 317 | 2.0 | 12.0 | 0.00 | 0.00 | 0.00 | 28 | 1004.3 |
| 20260503223516 | 71 | 350 | 3.0 | 13.0 | 0.00 | 0.00 | 0.00 | 29 | 1004.2 |
| 20260503223037 | 70 | 322 | 3.0 | 13.0 | 0.00 | 0.00 | 0.00 | 29 | 1004.3 |
| 20260503222518 | 71 | 274 | 2.0 | 13.0 | 0.00 | 0.00 | 0.00 | 26 | 1004.3 |
| 20260503222019 | 72 | 277 | 5.0 | 15.0 | 0.00 | 0.00 | 0.00 | 25 | 1004.3 |
| 20260503221541 | 71 | 272 | 5.0 | 15.0 | 0.00 | 0.00 | 0.00 | 27 | 1004.3 |
| 20260503221016 | 72 | 302 | 5.0 | 15.0 | 0.00 | 0.00 | 0.00 | 25 | 1004.5 |
| 20260503220521 | 72 | 326 | 5.0 | 11.0 | 0.00 | 0.00 | 0.00 | 27 | 1004.5 |
| 20260503220042 | 72 | 312 | 4.0 | 11.0 | 0.00 | 0.00 | 0.00 | 27 | 1004.4 |
| 20260503215518 | 73 | 27 | 3.0 | 11.0 | 0.00 | 0.00 | 0.00 | 25 | 1004.4 |
| 20260503215018 | 72 | 319 | 3.0 | 15.0 | 0.00 | 0.00 | 0.00 | 28 | 1004.5 |
| 20260503214538 | 73 | 293 | 7.0 | 15.0 | 0.00 | 0.00 | 0.00 | 27 | 1004.4 |
| 20260503214018 | 72 | 292 | 3.0 | 14.0 | 0.00 | 0.00 | 0.00 | 28 | 1004.3 |
| 20260503213516 | 72 | 329 | 4.0 | 14.0 | 0.00 | 0.00 | 0.00 | 27 | 1004.4 |
| 20260503213051 | 73 | 329 | 6.0 | 17.0 | 0.00 | 0.00 | 0.00 | 29 | 1004.5 |
| 20260503212517 | 72 | 279 | 7.0 | 17.0 | 0.00 | 0.00 | 0.00 | 26 | 1004.6 |
| 20260503212019 | 71 | 273 | 6.0 | 16.0 | 0.00 | 0.00 | 0.00 | 31 | 1004.6 |
| 20260503211537 | 71 | 317 | 7.0 | 16.0 | 0.00 | 0.00 | 0.00 | 28 | 1004.6 |
| 20260503211016 | 72 | 296 | 5.0 | 16.0 | 0.00 | 0.00 | 0.00 | 27 | 1004.7 |
| 20260503210519 | 72 | 355 | 4.0 | 13.0 | 0.00 | 0.00 | 0.00 | 29 | 1004.8 |
| 20260503210043 | 72 | 327 | 4.0 | 19.0 | 0.00 | 0.00 | 0.00 | 28 | 1004.9 |
| 20260503205516 | 72 | 262 | 8.0 | 24.0 | 0.00 | 0.00 | 0.00 | 24 | 1004.9 |
| 20260503205018 | 72 | 286 | 3.0 | 24.0 | 0.00 | 0.00 | 0.00 | 28 | 1004.9 |
| 20260503204550 | 73 | 309 | 7.0 | 16.0 | 0.00 | 0.00 | 0.00 | 26 | 1004.9 |
| 20260503204016 | 72 | 266 | 4.0 | 16.0 | 0.00 | 0.00 | 0.00 | 29 | 1004.9 |
| 20260503203519 | 72 | 260 | 4.0 | 14.0 | 0.00 | 0.00 | 0.00 | 30 | 1004.9 |
| 20260503203036 | 73 | 346 | 3.0 | 12.0 | 0.00 | 0.00 | 0.00 | 33 | 1005.0 |
| 20260503202519 | 72 | 317 | 6.0 | 23.0 | 0.00 | 0.00 | 0.00 | 26 | 1005.1 |
| 20260503202020 | 72 | 336 | 4.0 | 23.0 | 0.00 | 0.00 | 0.00 | 30 | 1005.2 |
| 20260503201617 | 72 | 40 | 9.0 | 23.0 | 0.00 | 0.00 | 0.00 | 26 | 1005.2 |
| 20260503201021 | 72 | 279 | 7.0 | 14.0 | 0.00 | 0.00 | 0.00 | 30 | 1005.2 |
| 20260503200517 | 72 | 328 | 5.0 | 17.0 | 0.00 | 0.00 | 0.00 | 33 | 1005.2 |
| 20260503200037 | 73 | 277 | 6.0 | 17.0 | 0.00 | 0.00 | 0.00 | 34 | 1005.3 |
| 20260503195516 | 72 | 280 | 3.0 | 16.0 | 0.00 | 0.00 | 0.00 | 32 | 1005.3 |
| 20260503195017 | 72 | 286 | 7.0 | 17.0 | 0.00 | 0.00 | 0.00 | 28 | 1005.4 |
| 20260503194542 | 71 | 284 | 6.0 | 17.0 | 0.00 | 0.00 | 0.00 | 30 | 1005.4 |
| 20260503194016 | 72 | 282 | 5.0 | 17.0 | 0.00 | 0.00 | 0.00 | 32 | 1005.5 |
| 20260503193519 | 73 | 273 | 6.0 | 15.0 | 0.00 | 0.00 | 0.00 | 34 | 1005.4 |
| 20260503193046 | 72 | 26 | 3.0 | 15.0 | 0.00 | 0.00 | 0.00 | 39 | 1005.3 |
| 20260503192516 | 73 | 265 | 7.0 | 15.0 | 0.00 | 0.00 | 0.00 | 35 | 1005.6 |
| 20260503192020 | 72 | 347 | 7.0 | 14.0 | 0.00 | 0.00 | 0.00 | 38 | 1005.4 |
| 20260503191535 | 71 | 292 | 4.0 | 14.0 | 0.00 | 0.00 | 0.00 | 34 | 1005.3 |
| 20260503191019 | 73 | 268 | 6.0 | 15.0 | 0.00 | 0.00 | 0.00 | 31 | 1005.5 |
| 20260503190520 | 73 | 286 | 7.0 | 15.0 | 0.00 | 0.00 | 0.00 | 34 | 1005.4 |
| 20260503190037 | 72 | 286 | 7.0 | 15.0 | 0.00 | 0.00 | 0.00 | 36 | 1005.4 |
| 20260503185516 | 72 | 286 | 4.0 | 15.0 | 0.00 | 0.00 | 0.00 | 36 | 1005.5 |
| 20260503185019 | 72 | 341 | 6.0 | 15.0 | 0.00 | 0.00 | 0.00 | 37 | 1005.5 |
| 20260503184548 | 72 | 306 | 6.0 | 15.0 | 0.00 | 0.00 | 0.00 | 38 | 1005.6 |
| 20260503184020 | 72 | 277 | 6.0 | 16.0 | 0.00 | 0.00 | 0.00 | 39 | 1005.6 |
| 20260503183517 | 72 | 274 | 3.0 | 16.0 | 0.00 | 0.00 | 0.00 | 39 | 1005.7 |
| 20260503183057 | 71 | 299 | 3.0 | 14.0 | 0.00 | 0.00 | 0.00 | 39 | 1005.6 |
| 20260503182518 | 71 | 355 | 5.0 | 14.0 | 0.00 | 0.00 | 0.00 | 42 | 1005.7 |
| 20260503182018 | 70 | 34 | 4.0 | 15.0 | 0.00 | 0.00 | 0.00 | 40 | 1005.7 |
| 20260503181537 | 71 | 17 | 7.0 | 15.0 | 0.00 | 0.00 | 0.00 | 40 | 1005.7 |
| 20260503181019 | 71 | 0 | 6.0 | 15.0 | 0.00 | 0.00 | 0.00 | 38 | 1005.8 |
| 20260503180517 | 71 | 266 | 3.0 | 15.0 | 0.00 | 0.00 | 0.00 | 41 | 1005.7 |
| 20260503180043 | 70 | 276 | 5.0 | 15.0 | 0.00 | 0.00 | 0.00 | 42 | 1005.8 |
| 20260503175516 | 71 | 275 | 4.0 | 14.0 | 0.00 | 0.00 | 0.00 | 40 | 1005.8 |
| 20260503175018 | 71 | 305 | 6.0 | 14.0 | 0.00 | 0.00 | 0.00 | 39 | 1005.9 |
| 20260503174536 | 71 | 281 | 4.0 | 12.0 | 0.00 | 0.00 | 0.00 | 41 | 1005.9 |
| 20260503174016 | 70 | 273 | 3.0 | 14.0 | 0.00 | 0.00 | 0.00 | 44 | 1006.0 |
| 20260503173516 | 70 | 30 | 4.0 | 14.0 | 0.00 | 0.00 | 0.00 | 36 | 1006.0 |
| 20260503173059 | 70 | 306 | 4.0 | 14.0 | 0.00 | 0.00 | 0.00 | 40 | 1005.9 |
| 20260503172515 | 68 | 272 | 5.0 | 16.0 | 0.00 | 0.00 | 0.00 | 39 | 1006.0 |
| 20260503172018 | 69 | 360 | 5.0 | 16.0 | 0.00 | 0.00 | 0.00 | 43 | 1006.2 |
| 20260503171541 | 71 | 17 | 5.0 | 14.0 | 0.00 | 0.00 | 0.00 | 37 | 1006.3 |
| 20260503171019 | 69 | 355 | 3.0 | 14.0 | 0.00 | 0.00 | 0.00 | 39 | 1006.2 |
| 20260503170516 | 69 | 352 | 2.0 | 17.0 | 0.00 | 0.00 | 0.00 | 45 | 1006.1 |
| 20260503150518 | 60 | 30 | 2.0 | 14.0 | 0.00 | 0.00 | 0.00 | 53 | 1005.7 |
| 20260503140105 | 55 | 344 | 2.0 | 9.0 | 0.00 | 0.00 | 0.00 | 56 | 1005.5 |
| 20260503131016 | 53 | 203 | 3.0 | 7.0 | 0.00 | 0.00 | 0.00 | 57 | 1005.2 |
| 20260503130519 | 52 | 229 | 2.0 | 5.0 | 0.00 | 0.00 | 0.00 | 58 | 1005.2 |
| 20260503110516 | 50 | 0 | 1.0 | 6.0 | 0.00 | 0.00 | 0.00 | 57 | 1004.3 |
| 20260503081539 | 54 | 196 | 3.0 | 14.0 | 0.00 | 0.00 | 0.00 | 57 | 1005.4 |
| 20260503081019 | 54 | 193 | 2.0 | 10.0 | 0.00 | 0.00 | 0.00 | 58 | 1005.5 |
| 20260503080518 | 54 | 191 | 3.0 | 10.0 | 0.00 | 0.00 | 0.00 | 58 | 1005.4 |
| 20260503072517 | 54 | 174 | 2.0 | 8.0 | 0.00 | 0.00 | 0.00 | 60 | 1006.1 |
| 20260503072017 | 54 | 153 | 1.0 | 7.0 | 0.00 | 0.00 | 0.00 | 59 | 1006.2 |
| 20260503071539 | 54 | 153 | 2.0 | 9.0 | 0.00 | 0.00 | 0.00 | 59 | 1006.3 |
| 20260503071018 | 54 | 162 | 3.0 | 9.0 | 0.00 | 0.00 | 0.00 | 59 | 1006.3 |
| 20260503070518 | 54 | 180 | 3.0 | 9.0 | 0.00 | 0.00 | 0.00 | 60 | 1006.4 |
| 20260503055018 | 56 | 182 | 1.0 | 8.0 | 0.00 | 0.00 | 0.00 | 50 | 1007.8 |
| 20260503054538 | 56 | 192 | 3.0 | 9.0 | 0.00 | 0.00 | 0.00 | 49 | 1007.8 |
| 20260503054021 | 56 | 192 | 2.0 | 9.0 | 0.00 | 0.00 | 0.00 | 50 | 1007.7 |
| 20260503053517 | 56 | 175 | 3.0 | 9.0 | 0.00 | 0.00 | 0.00 | 49 | 1007.8 |
| 20260503053037 | 56 | 0 | 2.0 | 10.0 | 0.00 | 0.00 | 0.00 | 49 | 1007.8 |
| 20260503052521 | 56 | 0 | 3.0 | 10.0 | 0.00 | 0.00 | 0.00 | 49 | 1007.9 |
| 20260503052017 | 56 | 194 | 2.0 | 9.0 | 0.00 | 0.00 | 0.00 | 49 | 1007.9 |
| 20260503051540 | 56 | 0 | 3.0 | 9.0 | 0.00 | 0.00 | 0.00 | 49 | 1007.8 |
| 20260503051019 | 56 | 175 | 3.0 | 9.0 | 0.00 | 0.00 | 0.00 | 49 | 1007.9 |
| 20260503050519 | 56 | 184 | 2.0 | 9.0 | 0.00 | 0.00 | 0.00 | 49 | 1007.9 |
| 20260503050038 | 57 | 157 | 1.0 | 8.0 | 0.00 | 0.00 | 0.00 | 49 | 1008.0 |
| 20260503045517 | 57 | 173 | 2.0 | 8.0 | 0.00 | 0.00 | 0.00 | 49 | 1008.1 |
| 20260503045018 | 57 | 179 | 2.0 | 8.0 | 0.00 | 0.00 | 0.00 | 49 | 1008.0 |
| 20260503044537 | 57 | 0 | 1.0 | 9.0 | 0.00 | 0.00 | 0.00 | 49 | 1008.1 |
| 20260503044017 | 57 | 190 | 2.0 | 9.0 | 0.00 | 0.00 | 0.00 | 48 | 1008.2 |
| 20260503043517 | 58 | 0 | 2.0 | 6.0 | 0.00 | 0.00 | 0.00 | 48 | 1008.4 |
| 20260503043041 | 58 | 173 | 1.0 | 6.0 | 0.00 | 0.00 | 0.00 | 48 | 1008.5 |
| 20260503042517 | 58 | 170 | 2.0 | 6.0 | 0.00 | 0.00 | 0.00 | 48 | 1008.5 |
| 20260503042019 | 58 | 188 | 1.0 | 5.0 | 0.00 | 0.00 | 0.00 | 47 | 1008.6 |
| 20260503041537 | 58 | 182 | 1.0 | 7.0 | 0.00 | 0.00 | 0.00 | 47 | 1008.7 |
| 20260503041022 | 59 | 0 | 1.0 | 7.0 | 0.00 | 0.00 | 0.00 | 46 | 1008.8 |
| 20260503040517 | 59 | 157 | 2.0 | 6.0 | 0.00 | 0.00 | 0.00 | 45 | 1008.9 |
| 20260503040044 | 59 | 181 | 1.0 | 8.0 | 0.00 | 0.00 | 0.00 | 45 | 1008.9 |
| 20260503035517 | 59 | 178 | 2.0 | 8.0 | 0.00 | 0.00 | 0.00 | 44 | 1009.0 |
| 20260503035017 | 59 | 0 | 0.0 | 6.0 | 0.00 | 0.00 | 0.00 | 44 | 1008.9 |
| 20260503034549 | 59 | 177 | 1.0 | 6.0 | 0.00 | 0.00 | 0.00 | 44 | 1009.1 |
| 20260503034022 | 60 | 215 | 1.0 | 8.0 | 0.00 | 0.00 | 0.00 | 43 | 1009.2 |
| 20260503033516 | 60 | 191 | 2.0 | 8.0 | 0.00 | 0.00 | 0.00 | 43 | 1009.2 |
| 20260503033043 | 60 | 219 | 2.0 | 7.0 | 0.00 | 0.00 | 0.00 | 43 | 1009.5 |
| 20260503032518 | 60 | 210 | 2.0 | 9.0 | 0.00 | 0.00 | 0.00 | 43 | 1009.5 |
| 20260503032017 | 60 | 203 | 2.0 | 9.0 | 0.00 | 0.00 | 0.00 | 43 | 1009.7 |
| 20260503031541 | 60 | 0 | 1.0 | 8.0 | 0.00 | 0.00 | 0.00 | 43 | 1009.7 |
| 20260503031018 | 60 | 169 | 0.0 | 9.0 | 0.00 | 0.00 | 0.00 | 43 | 1009.8 |
| 20260503030518 | 60 | 210 | 2.0 | 9.0 | 0.00 | 0.00 | 0.00 | 43 | 1009.8 |
| 20260503030047 | 60 | 0 | 0.0 | 7.0 | 0.00 | 0.00 | 0.00 | 42 | 1010.0 |
| 20260503025517 | 60 | 0 | 1.0 | 7.0 | 0.00 | 0.00 | 0.00 | 42 | 1010.2 |
| 20260503025018 | 60 | 220 | 2.0 | 11.0 | 0.00 | 0.00 | 0.00 | 43 | 1010.2 |
| 20260503024533 | 60 | 227 | 2.0 | 11.0 | 0.00 | 0.00 | 0.00 | 42 | 1010.3 |